Time;durP1;ratioP1;P1;durP2;ratioP2;P2;SDS_P1;SDS_P2;PMS_P1;PMS_P2;Temp;Humidity;BMP_temperature;BMP_pressure;BME280_temperature;BME280_humidity;BME280_pressure;Samples;Min_cycle;Max_cycle;Signal;HPM_P1;HPM_P2
2022/09/09 00:02:24;;;;;;;3.17;0.70;;;12.10;99.90;;;;;;5033415;28;20037;-74
2022/09/09 00:05:14;;;;;;;1.17;0.68;;;12.00;99.90;;;;;;5035161;28;20036;-74
2022/09/09 00:07:45;;;;;;;2.63;0.80;;;12.00;99.90;;;;;;5034776;28;20018;-74
2022/09/09 00:10:33;;;;;;;1.63;0.68;;;12.00;99.90;;;;;;5034743;28;20025;-75
2022/09/09 00:13:33;;;;;;;1.27;0.63;;;11.90;99.90;;;;;;5035009;28;20025;-74
2022/09/09 00:16:16;;;;;;;2.10;0.80;;;11.90;99.90;;;;;;5034628;28;20034;-75
2022/09/09 00:19:20;;;;;;;1.25;0.60;;;12.00;99.90;;;;;;5034930;28;20018;-75
2022/09/09 00:22:03;;;;;;;3.53;0.90;;;12.00;99.90;;;;;;5028589;28;20033;-75
2022/09/09 00:24:43;;;;;;;2.35;0.70;;;12.10;99.90;;;;;;5035109;28;20068;-75
2022/09/09 00:27:41;;;;;;;1.25;0.70;;;12.10;99.90;;;;;;5034686;28;20041;-75
2022/09/09 00:30:23;;;;;;;1.63;0.68;;;12.20;99.90;;;;;;5034211;28;20139;-75
2022/09/09 00:32:54;;;;;;;1.23;0.60;;;12.20;99.90;;;;;;5034354;28;20014;-75
2022/09/09 00:35:26;;;;;;;1.25;0.70;;;12.20;99.90;;;;;;5034299;28;20045;-75
2022/09/09 00:37:56;;;;;;;2.08;0.60;;;12.20;99.90;;;;;;5034203;28;20101;-75
2022/09/09 00:40:32;;;;;;;2.15;0.80;;;12.20;99.90;;;;;;5034347;28;20462;-75
2022/09/09 00:43:16;;;;;;;1.13;0.52;;;12.20;99.90;;;;;;5032897;28;20032;-75
2022/09/09 00:45:56;;;;;;;2.25;0.85;;;12.20;99.90;;;;;;5034460;28;20022;-75
2022/09/09 00:48:31;;;;;;;3.63;0.88;;;12.20;99.90;;;;;;5034291;28;20025;-75
2022/09/09 00:51:05;;;;;;;2.58;0.80;;;12.20;99.90;;;;;;5033996;28;20022;-76
2022/09/09 00:53:55;;;;;;;3.28;1.10;;;12.20;99.90;;;;;;5034065;28;20364;-75
2022/09/09 00:56:42;;;;;;;1.70;0.85;;;12.10;99.90;;;;;;5033922;28;20132;-75
2022/09/09 00:59:10;;;;;;;1.95;0.90;;;12.10;99.90;;;;;;5034223;28;20052;-75
2022/09/09 01:01:36;;;;;;;3.03;0.68;;;12.10;99.90;;;;;;5033629;28;20072;-75
2022/09/09 01:04:10;;;;;;;2.55;0.70;;;12.10;99.90;;;;;;5033814;28;20389;-75
2022/09/09 01:06:38;;;;;;;1.48;0.77;;;12.10;99.90;;;;;;5034018;28;20060;-75
2022/09/09 01:09:13;;;;;;;4.32;0.80;;;12.10;99.90;;;;;;5033701;28;20017;-75
2022/09/09 01:12:15;;;;;;;2.80;1.08;;;12.10;99.90;;;;;;5033575;28;20032;-74
2022/09/09 01:14:48;;;;;;;2.03;0.90;;;12.20;99.90;;;;;;5033857;28;20059;-74
2022/09/09 01:17:17;;;;;;;1.55;0.80;;;12.20;99.90;;;;;;5033899;28;20032;-75
2022/09/09 01:19:42;;;;;;;1.67;0.90;;;12.20;99.90;;;;;;5032220;28;20108;-75
2022/09/09 01:22:29;;;;;;;2.15;1.08;;;12.20;99.90;;;;;;5034173;28;20045;-74
2022/09/09 01:25:49;;;;;;;3.03;1.00;;;12.20;99.90;;;;;;5033486;28;20025;-74
2022/09/09 01:28:19;;;;;;;2.25;1.00;;;12.20;99.90;;;;;;5031877;28;20052;-74
2022/09/09 01:30:45;;;;;;;2.38;0.98;;;12.20;99.90;;;;;;5033541;28;20108;-74
2022/09/09 01:33:15;;;;;;;2.13;0.90;;;12.20;99.90;;;;;;5033583;28;20196;-74
2022/09/09 01:35:44;;;;;;;2.17;0.95;;;12.20;99.90;;;;;;5033566;28;20458;-74
2022/09/09 01:38:10;;;;;;;3.08;1.13;;;12.20;99.90;;;;;;5033279;28;20021;-74
2022/09/09 01:40:36;;;;;;;2.67;1.00;;;12.20;99.90;;;;;;5032335;28;20446;-74
2022/09/09 01:43:03;;;;;;;1.08;0.70;;;12.30;99.90;;;;;;5033550;28;20029;-75
2022/09/09 01:45:30;;;;;;;1.13;0.70;;;12.20;99.90;;;;;;5033407;28;20080;-74
2022/09/09 01:47:56;;;;;;;1.95;0.80;;;12.20;99.90;;;;;;5033156;28;20125;-73
2022/09/09 01:50:22;;;;;;;2.45;1.00;;;12.30;99.90;;;;;;5033134;28;20064;-74
2022/09/09 01:52:52;;;;;;;2.63;0.88;;;12.30;99.90;;;;;;5033219;28;20029;-74
2022/09/09 01:55:27;;;;;;;2.03;0.80;;;12.30;99.90;;;;;;5033224;28;20468;-74
2022/09/09 01:58:09;;;;;;;1.40;0.85;;;12.30;99.90;;;;;;5033410;28;20029;-74
2022/09/09 02:00:41;;;;;;;3.72;1.10;;;12.30;99.90;;;;;;5033118;28;20480;-74
2022/09/09 02:03:28;;;;;;;2.15;1.02;;;12.30;99.90;;;;;;5033301;28;20045;-74
2022/09/09 02:05:56;;;;;;;3.53;1.00;;;12.30;99.90;;;;;;5033068;28;20033;-74
2022/09/09 02:08:38;;;;;;;3.40;1.20;;;12.30;99.90;;;;;;5032963;28;20515;-74
2022/09/09 02:11:14;;;;;;;3.35;1.00;;;12.30;99.90;;;;;;5033234;28;20017;-74
2022/09/09 02:13:44;;;;;;;2.05;0.88;;;12.30;99.90;;;;;;5033283;28;20037;-74
2022/09/09 02:16:41;;;;;;;2.53;1.08;;;12.30;99.90;;;;;;5033195;28;20104;-74
2022/09/09 02:19:16;;;;;;;1.88;1.10;;;12.30;99.90;;;;;;5032927;28;20021;-74
2022/09/09 02:21:45;;;;;;;2.42;1.00;;;12.30;99.90;;;;;;5032849;28;20052;-74
2022/09/09 02:24:14;;;;;;;1.85;1.08;;;12.30;99.90;;;;;;5032923;28;20390;-74
2022/09/09 02:26:44;;;;;;;1.63;0.80;;;12.40;99.90;;;;;;5033069;28;20061;-74
2022/09/09 02:29:32;;;;;;;1.80;0.82;;;12.30;99.90;;;;;;5032807;28;20052;-74
2022/09/09 02:32:03;;;;;;;2.05;1.10;;;12.40;99.90;;;;;;5033421;28;20063;-75
2022/09/09 02:34:31;;;;;;;2.53;1.40;;;12.40;99.90;;;;;;5033253;28;20060;-75
2022/09/09 02:36:59;;;;;;;5.63;2.05;;;12.40;99.90;;;;;;5032735;28;20113;-75
2022/09/09 02:39:25;;;;;;;3.20;1.90;;;12.40;99.90;;;;;;5032822;28;20561;-74
2022/09/09 02:41:52;;;;;;;3.05;1.58;;;12.40;99.90;;;;;;5032870;28;20128;-74
2022/09/09 02:44:19;;;;;;;1.85;1.13;;;12.40;99.90;;;;;;5032665;28;20032;-75
2022/09/09 02:47:03;;;;;;;2.95;0.93;;;12.40;99.90;;;;;;5031270;28;20037;-75
2022/09/09 02:49:32;;;;;;;2.53;1.15;;;12.40;99.90;;;;;;5032638;28;20022;-75
2022/09/09 02:52:01;;;;;;;1.77;0.90;;;12.30;99.90;;;;;;5034248;28;20026;-74
2022/09/09 02:54:30;;;;;;;3.50;1.00;;;12.40;99.90;;;;;;5036548;28;20350;-74
2022/09/09 02:57:15;;;;;;;1.50;0.80;;;12.40;99.90;;;;;;5036508;28;20029;-75
2022/09/09 02:59:43;;;;;;;2.75;1.20;;;12.40;99.90;;;;;;5036660;28;20032;-74
2022/09/09 03:02:11;;;;;;;2.92;1.27;;;12.40;99.90;;;;;;5036080;28;20509;-74
2022/09/09 03:04:37;;;;;;;2.22;1.10;;;12.40;99.90;;;;;;5036231;28;20368;-74
2022/09/09 03:07:03;;;;;;;3.30;1.60;;;12.40;99.90;;;;;;5035045;28;20058;-74
2022/09/09 03:09:30;;;;;;;5.00;1.40;;;12.40;99.90;;;;;;5036023;28;20028;-74
2022/09/09 03:11:56;;;;;;;1.48;0.90;;;12.40;99.90;;;;;;5036084;28;20473;-74
2022/09/09 03:14:24;;;;;;;3.70;1.20;;;12.50;99.90;;;;;;5036108;28;20024;-74
2022/09/09 03:16:51;;;;;;;3.28;1.30;;;12.50;99.90;;;;;;5034518;28;20025;-74
2022/09/09 03:19:18;;;;;;;2.53;1.25;;;12.50;99.90;;;;;;5034851;28;20433;-74
2022/09/09 03:21:45;;;;;;;2.25;1.20;;;12.50;99.90;;;;;;5035629;28;20049;-74
2022/09/09 03:24:11;;;;;;;2.88;1.35;;;12.50;99.90;;;;;;5035696;28;20029;-74
2022/09/09 03:26:37;;;;;;;2.20;1.17;;;12.50;99.90;;;;;;5034389;28;20548;-74
2022/09/09 03:29:06;;;;;;;1.98;0.98;;;12.50;99.90;;;;;;5034281;28;20036;-74
2022/09/09 03:31:32;;;;;;;2.65;1.10;;;12.50;99.90;;;;;;5034172;28;20025;-74
2022/09/09 03:33:58;;;;;;;3.50;1.17;;;12.50;99.90;;;;;;5035680;28;20465;-74
2022/09/09 03:36:28;;;;;;;2.67;0.80;;;12.50;99.90;;;;;;5034546;28;20057;-74
2022/09/09 03:38:54;;;;;;;3.55;1.20;;;12.50;99.90;;;;;;5035365;28;20056;-75
2022/09/09 03:41:23;;;;;;;2.53;1.10;;;12.50;99.90;;;;;;5035288;28;20026;-75
2022/09/09 03:43:50;;;;;;;2.85;1.00;;;12.40;99.90;;;;;;5035528;28;20026;-74
2022/09/09 03:46:15;;;;;;;2.80;1.10;;;12.50;99.90;;;;;;5035201;28;20033;-74
2022/09/09 03:48:41;;;;;;;2.63;1.10;;;12.50;99.90;;;;;;5035184;28;20394;-74
2022/09/09 03:51:07;;;;;;;2.50;1.10;;;12.50;99.90;;;;;;5035073;28;20390;-74
2022/09/09 03:53:33;;;;;;;1.60;0.77;;;12.50;99.90;;;;;;5035106;28;20136;-74
2022/09/09 03:55:59;;;;;;;2.78;1.00;;;12.50;99.90;;;;;;5035071;28;20082;-74
2022/09/09 03:58:26;;;;;;;2.08;0.82;;;12.50;99.90;;;;;;5035050;28;20026;-74
2022/09/09 04:00:57;;;;;;;2.08;1.30;;;12.50;99.90;;;;;;5034715;28;20025;-74
2022/09/09 04:03:24;;;;;;;1.50;0.88;;;12.50;99.90;;;;;;5034360;28;20481;-74
2022/09/09 04:05:51;;;;;;;2.97;1.20;;;12.40;99.90;;;;;;5034869;28;20084;-74
2022/09/09 04:08:18;;;;;;;1.92;0.77;;;12.40;99.90;;;;;;5035060;28;20025;-74
2022/09/09 04:10:48;;;;;;;2.40;0.85;;;12.40;99.90;;;;;;5034693;28;20132;-74
2022/09/09 04:13:18;;;;;;;3.15;1.48;;;12.30;99.90;;;;;;5034704;28;20093;-74
2022/09/09 04:15:49;;;;;;;3.20;1.10;;;12.30;99.90;;;;;;5035456;28;20425;-74
2022/09/09 04:18:15;;;;;;;3.33;1.35;;;12.20;99.90;;;;;;5035263;28;20068;-74
2022/09/09 04:20:43;;;;;;;2.88;1.50;;;12.20;99.90;;;;;;5034507;28;20029;-74
2022/09/09 04:23:09;;;;;;;2.85;1.30;;;12.20;99.90;;;;;;5034505;28;20113;-75
2022/09/09 04:25:34;;;;;;;2.78;1.10;;;12.20;99.90;;;;;;5035033;28;20060;-74
2022/09/09 04:28:00;;;;;;;3.05;1.25;;;12.20;99.90;;;;;;5034416;28;20030;-74
2022/09/09 04:30:27;;;;;;;5.10;1.30;;;12.20;99.90;;;;;;5034578;28;20025;-74
2022/09/09 04:32:53;;;;;;;3.97;1.55;;;12.30;99.90;;;;;;5034382;28;20028;-74
2022/09/09 04:35:19;;;;;;;5.15;1.60;;;12.30;99.90;;;;;;5034326;28;20025;-74
2022/09/09 04:37:45;;;;;;;5.57;1.67;;;12.30;99.90;;;;;;5034492;28;20473;-75
2022/09/09 04:40:11;;;;;;;15.25;5.82;;;12.30;99.90;;;;;;5034438;28;20040;-75
2022/09/09 04:42:38;;;;;;;13.00;4.85;;;12.40;99.90;;;;;;5032844;28;20087;-74
2022/09/09 04:45:05;;;;;;;7.30;3.33;;;12.30;99.90;;;;;;5034409;28;20053;-74
2022/09/09 04:47:31;;;;;;;6.20;2.28;;;12.30;99.90;;;;;;5033991;28;20112;-74
2022/09/09 04:49:57;;;;;;;3.78;1.70;;;12.30;99.90;;;;;;5034061;28;20449;-74
2022/09/09 04:52:22;;;;;;;4.30;1.70;;;12.30;99.90;;;;;;5032727;28;20028;-74
2022/09/09 04:54:48;;;;;;;3.53;1.50;;;12.20;99.90;;;;;;5033952;28;20048;-74
2022/09/09 04:57:14;;;;;;;3.30;1.75;;;12.20;99.90;;;;;;5034186;28;20064;-74
2022/09/09 04:59:39;;;;;;;4.25;1.63;;;12.20;99.90;;;;;;5033916;28;20037;-74
2022/09/09 05:02:05;;;;;;;2.25;1.23;;;12.20;99.90;;;;;;5033991;28;20037;-74
2022/09/09 05:04:32;;;;;;;3.70;1.75;;;12.20;99.90;;;;;;5033810;28;20030;-74
2022/09/09 05:06:58;;;;;;;4.15;1.48;;;12.20;99.90;;;;;;5034050;28;20076;-74
2022/09/09 05:09:24;;;;;;;2.97;1.65;;;12.20;99.90;;;;;;5036292;28;20021;-74
2022/09/09 05:11:51;;;;;;;4.38;1.58;;;12.10;99.90;;;;;;5053091;28;20493;-75
2022/09/09 05:14:17;;;;;;;5.78;1.60;;;12.20;99.90;;;;;;5043443;28;20018;-74
2022/09/09 05:16:45;;;;;;;3.30;1.25;;;12.20;99.90;;;;;;5027883;28;20493;-74
2022/09/09 05:19:11;;;;;;;2.55;1.23;;;12.20;99.90;;;;;;5042195;28;20033;-74
2022/09/09 05:21:37;;;;;;;3.35;1.35;;;12.30;99.90;;;;;;5050185;28;20044;-74
2022/09/09 05:24:04;;;;;;;3.40;1.38;;;12.30;99.90;;;;;;5042628;28;20110;-74
2022/09/09 05:26:30;;;;;;;2.72;1.20;;;12.30;99.90;;;;;;5052722;28;20041;-74
2022/09/09 05:28:56;;;;;;;2.40;1.13;;;12.40;99.90;;;;;;5052782;28;20537;-74
2022/09/09 05:31:22;;;;;;;2.60;1.35;;;12.40;99.90;;;;;;5038899;28;20030;-74
2022/09/09 05:33:49;;;;;;;2.72;1.15;;;12.40;99.90;;;;;;5032372;28;20087;-74
2022/09/09 05:36:17;;;;;;;4.40;1.05;;;12.40;99.90;;;;;;5033830;28;20096;-74
2022/09/09 05:38:44;;;;;;;2.65;1.30;;;12.50;99.90;;;;;;5048333;28;20056;-74
2022/09/09 05:41:11;;;;;;;3.35;1.83;;;12.50;99.90;;;;;;5052711;28;20036;-74
2022/09/09 05:43:38;;;;;;;4.10;1.90;;;12.40;99.90;;;;;;5052708;28;20025;-74
2022/09/09 05:46:06;;;;;;;5.65;2.00;;;12.40;99.90;;;;;;5052691;28;20025;-74
2022/09/09 05:48:33;;;;;;;4.85;1.83;;;12.40;99.90;;;;;;5050700;28;20099;-74
2022/09/09 05:51:00;;;;;;;2.95;1.40;;;12.50;99.90;;;;;;5041919;28;20033;-74
2022/09/09 05:53:33;;;;;;;3.60;1.30;;;12.40;99.90;;;;;;5043972;28;20025;-74
2022/09/09 05:56:24;;;;;;;3.35;2.15;;;12.50;99.90;;;;;;5046501;28;20478;-74
2022/09/09 05:58:52;;;;;;;4.60;2.10;;;12.50;99.90;;;;;;5052205;28;20384;-74
2022/09/09 06:01:26;;;;;;;2.83;1.80;;;12.50;99.90;;;;;;5045773;28;20117;-74
2022/09/09 06:03:53;;;;;;;3.20;1.60;;;12.50;99.90;;;;;;5039262;28;20026;-74
2022/09/09 06:06:26;;;;;;;3.47;1.50;;;12.50;99.90;;;;;;5033100;28;20026;-75
2022/09/09 06:08:54;;;;;;;2.83;1.48;;;12.50;99.90;;;;;;5033145;28;20052;-74
2022/09/09 06:11:23;;;;;;;3.08;1.80;;;12.50;99.90;;;;;;5033368;28;20032;-74
2022/09/09 06:13:53;;;;;;;4.05;1.88;;;12.60;99.90;;;;;;5031952;28;20028;-74
2022/09/09 06:16:22;;;;;;;2.20;1.27;;;12.60;99.90;;;;;;5032191;28;20021;-74
2022/09/09 06:18:49;;;;;;;3.33;1.67;;;12.60;99.90;;;;;;5033346;28;20025;-74
2022/09/09 06:21:29;;;;;;;2.60;1.38;;;12.50;99.90;;;;;;5033086;28;20022;-74
2022/09/09 06:23:56;;;;;;;3.80;1.65;;;12.60;99.90;;;;;;5032897;28;20053;-74
2022/09/09 06:26:27;;;;;;;2.75;1.40;;;12.60;99.90;;;;;;5033964;28;20033;-74
2022/09/09 06:28:54;;;;;;;2.35;1.20;;;12.60;99.90;;;;;;5047451;28;20021;-74
2022/09/09 06:31:23;;;;;;;2.80;1.45;;;12.60;99.90;;;;;;5043793;28;20033;-74
2022/09/09 06:33:54;;;;;;;2.17;1.20;;;12.60;99.90;;;;;;5036980;28;20358;-74
2022/09/09 06:36:22;;;;;;;2.28;1.33;;;12.60;99.90;;;;;;5030219;28;20107;-74
2022/09/09 06:38:47;;;;;;;2.30;1.17;;;12.60;99.90;;;;;;5055678;28;20451;-74
2022/09/09 06:41:16;;;;;;;3.30;1.38;;;12.60;99.90;;;;;;5055801;28;20100;-74
2022/09/09 06:43:42;;;;;;;2.88;1.52;;;12.70;99.90;;;;;;5071174;28;20499;-75
2022/09/09 06:46:11;;;;;;;2.65;1.25;;;12.70;99.90;;;;;;5071096;28;20119;-75
2022/09/09 06:48:38;;;;;;;2.10;1.20;;;12.70;99.90;;;;;;5055611;28;20032;-75
2022/09/09 06:51:31;;;;;;;3.92;1.77;;;12.70;99.90;;;;;;5055565;28;20040;-75
2022/09/09 06:53:59;;;;;;;2.50;1.50;;;12.70;99.90;;;;;;5054408;28;20044;-74
2022/09/09 06:56:37;;;;;;;3.35;1.45;;;12.70;99.90;;;;;;5071015;28;20048;-75
2022/09/09 06:59:08;;;;;;;2.83;1.50;;;12.70;99.90;;;;;;5055616;28;20051;-75
2022/09/09 07:01:43;;;;;;;3.53;1.80;;;12.80;99.90;;;;;;5056310;28;20116;-75
2022/09/09 07:04:10;;;;;;;3.67;1.92;;;12.70;99.90;;;;;;5036393;28;20474;-75
2022/09/09 07:06:45;;;;;;;2.78;1.45;;;12.70;99.90;;;;;;5036333;28;20037;-74
2022/09/09 07:09:13;;;;;;;3.60;1.42;;;12.70;99.90;;;;;;5036104;28;20363;-74
2022/09/09 07:11:41;;;;;;;3.25;1.60;;;12.70;99.90;;;;;;5034833;28;20025;-75
2022/09/09 07:14:08;;;;;;;3.13;1.35;;;12.70;99.90;;;;;;5036170;28;20026;-74
2022/09/09 07:16:36;;;;;;;4.28;1.60;;;12.70;99.90;;;;;;5035810;28;20125;-74
2022/09/09 07:19:03;;;;;;;2.78;1.60;;;12.70;99.90;;;;;;5035186;28;20049;-74
2022/09/09 07:21:31;;;;;;;2.58;1.50;;;12.80;99.90;;;;;;5033718;28;20025;-74
2022/09/09 07:23:57;;;;;;;3.13;1.48;;;12.80;99.90;;;;;;5035119;28;20497;-74
2022/09/09 07:26:26;;;;;;;2.20;1.40;;;12.90;99.90;;;;;;5035965;28;20040;-74
2022/09/09 07:28:52;;;;;;;2.67;1.48;;;12.90;99.90;;;;;;5035558;28;20381;-74
2022/09/09 07:31:23;;;;;;;3.00;1.60;;;13.00;99.90;;;;;;5034577;28;20465;-74
2022/09/09 07:33:49;;;;;;;4.55;1.90;;;13.00;99.90;;;;;;5035177;28;20447;-74
2022/09/09 07:36:21;;;;;;;4.45;2.25;;;13.00;99.90;;;;;;5035831;28;20036;-74
2022/09/09 07:38:58;;;;;;;5.03;2.40;;;13.00;99.90;;;;;;5034138;28;20044;-74
2022/09/09 07:41:34;;;;;;;2.92;1.70;;;13.00;99.90;;;;;;5035354;28;20021;-74
2022/09/09 07:44:04;;;;;;;4.75;2.40;;;13.10;99.90;;;;;;5035603;28;20013;-74
2022/09/09 07:46:29;;;;;;;4.15;1.77;;;13.10;99.90;;;;;;5035625;28;20026;-74
2022/09/09 07:48:56;;;;;;;3.65;1.80;;;13.20;99.90;;;;;;5034289;28;20083;-74
2022/09/09 07:51:29;;;;;;;4.63;1.80;;;13.20;99.90;;;;;;5035207;28;20046;-74
2022/09/09 07:53:58;;;;;;;2.60;1.58;;;13.20;99.90;;;;;;5035204;28;20022;-74
2022/09/09 07:56:25;;;;;;;3.45;1.58;;;13.20;99.90;;;;;;5035026;28;20022;-75
2022/09/09 07:58:53;;;;;;;2.95;1.88;;;13.30;99.90;;;;;;5035256;28;20421;-74
2022/09/09 08:01:39;;;;;;;4.15;1.83;;;13.30;99.90;;;;;;5034959;28;20164;-75
2022/09/09 08:04:08;;;;;;;2.70;1.42;;;13.30;99.90;;;;;;5034659;28;20041;-74
2022/09/09 08:06:37;;;;;;;3.50;1.90;;;13.30;99.90;;;;;;5034730;28;20099;-75
2022/09/09 08:09:04;;;;;;;2.35;1.40;;;13.40;99.90;;;;;;5035058;28;20097;-74
2022/09/09 08:11:30;;;;;;;2.45;1.30;;;13.40;99.90;;;;;;5033391;28;20028;-73
2022/09/09 08:13:56;;;;;;;2.78;1.63;;;13.40;99.90;;;;;;5034727;28;20021;-74
2022/09/09 08:16:27;;;;;;;2.38;1.20;;;13.40;99.90;;;;;;5034637;28;20032;-73
2022/09/09 08:18:53;;;;;;;;;;;13.50;99.90;;;;;;5035007;28;20071;-73
2022/09/09 08:21:31;;;;;;;2.42;1.40;;;13.50;99.90;;;;;;5034743;28;19959;-73
2022/09/09 08:23:59;;;;;;;2.55;1.30;;;13.50;99.90;;;;;;5034821;28;20021;-73
2022/09/09 08:26:34;;;;;;;2.28;1.27;;;13.50;99.90;;;;;;5034881;28;20053;-73
2022/09/09 08:29:01;;;;;;;4.68;1.33;;;13.60;99.90;;;;;;5033084;28;20374;-73
2022/09/09 08:31:28;;;;;;;3.97;1.50;;;13.60;99.90;;;;;;5034552;28;20089;-72
2022/09/09 08:33:55;;;;;;;4.70;1.20;;;13.60;99.90;;;;;;5034595;28;20420;-71
2022/09/09 08:36:23;;;;;;;2.13;1.27;;;13.60;99.90;;;;;;5034208;28;20500;-71
2022/09/09 08:38:51;;;;;;;3.25;1.52;;;13.60;99.90;;;;;;5034229;28;20026;-71
2022/09/09 08:41:50;;;;;;;2.88;1.50;;;13.60;99.90;;;;;;5034077;28;20474;-71
2022/09/09 08:44:25;;;;;;;2.60;1.83;;;13.70;99.90;;;;;;5034129;28;20366;-72
2022/09/09 08:47:26;;;;;;;2.53;1.42;;;13.70;99.90;;;;;;5033983;28;20036;-71
2022/09/09 08:50:00;;;;;;;4.07;1.63;;;13.80;99.90;;;;;;5033542;28;20021;-71
2022/09/09 08:52:30;;;;;;;3.25;1.50;;;13.90;99.90;;;;;;5034266;28;20096;-72
2022/09/09 08:55:24;;;;;;;6.47;1.70;;;13.90;99.90;;;;;;5034270;28;20026;-72
2022/09/09 08:57:53;;;;;;;2.95;1.45;;;13.90;99.90;;;;;;5033598;28;20033;-72
2022/09/09 09:00:20;;;;;;;3.97;1.70;;;14.00;99.90;;;;;;5034326;28;20394;-71
2022/09/09 09:03:26;;;;;;;5.70;1.88;;;14.00;99.90;;;;;;5033694;28;20033;-72
2022/09/09 09:05:59;;;;;;;3.75;1.40;;;14.10;99.90;;;;;;5033484;28;20038;-71
2022/09/09 09:08:34;;;;;;;3.58;1.65;;;14.20;99.90;;;;;;5032448;28;20036;-71
2022/09/09 09:11:01;;;;;;;3.42;1.50;;;14.30;99.90;;;;;;5033877;28;20021;-71
2022/09/09 09:13:32;;;;;;;5.78;1.90;;;14.40;99.90;;;;;;5033618;28;20022;-72
2022/09/09 09:16:04;;;;;;;5.05;1.55;;;14.50;99.90;;;;;;5033846;28;20037;-72
2022/09/09 09:18:31;;;;;;;2.42;1.15;;;14.40;99.90;;;;;;5033824;28;20374;-72
2022/09/09 09:21:10;;;;;;;3.42;1.23;;;14.40;99.90;;;;;;5033862;28;20033;-72
2022/09/09 09:23:58;;;;;;;2.40;1.17;;;14.50;99.90;;;;;;5033840;28;20053;-72
2022/09/09 09:26:30;;;;;;;2.63;1.27;;;14.50;99.90;;;;;;5033462;28;20458;-72
2022/09/09 09:28:58;;;;;;;5.53;1.50;;;14.50;99.90;;;;;;5033736;28;20025;-72
2022/09/09 09:31:26;;;;;;;2.67;1.20;;;14.60;99.90;;;;;;5033863;28;20460;-72
2022/09/09 09:33:56;;;;;;;3.17;1.40;;;14.60;99.90;;;;;;5033683;28;20024;-72
2022/09/09 09:36:54;;;;;;;4.40;1.70;;;14.70;99.90;;;;;;5033643;28;20477;-72
2022/09/09 09:39:31;;;;;;;3.30;1.33;;;14.70;99.90;;;;;;5033233;28;20065;-72
2022/09/09 09:41:57;;;;;;;2.30;1.42;;;14.60;99.90;;;;;;5033183;28;20048;-72
2022/09/09 09:44:31;;;;;;;2.40;1.40;;;14.70;99.90;;;;;;5033309;28;20486;-72
2022/09/09 09:47:14;;;;;;;2.33;1.42;;;14.70;99.90;;;;;;5033079;28;20026;-71
2022/09/09 09:50:02;;;;;;;2.33;1.20;;;14.60;99.90;;;;;;5033396;28;20021;-71
2022/09/09 09:52:32;;;;;;;2.97;1.40;;;14.60;99.90;;;;;;5033447;28;20026;-72
2022/09/09 09:54:59;;;;;;;2.60;1.42;;;14.60;99.90;;;;;;5033157;28;20168;-71
2022/09/09 09:57:30;;;;;;;2.65;1.20;;;14.60;99.90;;;;;;5033534;28;20029;-71
2022/09/09 10:00:25;;;;;;;;;;;14.70;99.90;;;;;;5033551;28;20048;-71
2022/09/09 10:02:52;;;;;;;4.60;2.10;;;14.80;99.90;;;;;;5032062;28;20328;-71
2022/09/09 10:05:24;;;;;;;5.72;2.50;;;14.80;99.90;;;;;;5037256;28;20037;-72
2022/09/09 10:08:12;;;;;;;3.63;2.08;;;14.90;99.90;;;;;;5037398;28;20056;-72
2022/09/09 10:11:15;;;;;;;3.88;2.00;;;15.00;99.90;;;;;;5037276;28;20045;-72
2022/09/09 10:14:02;;;;;;;4.03;1.77;;;15.10;99.90;;;;;;5037099;28;20381;-72
2022/09/09 10:16:48;;;;;;;4.30;2.20;;;15.20;99.90;;;;;;5037041;28;20487;-71
2022/09/09 10:19:20;;;;;;;3.35;1.90;;;15.20;99.90;;;;;;5037475;28;20022;-71
2022/09/09 10:22:19;;;;;;;4.55;2.47;;;15.30;99.90;;;;;;5037040;28;20022;-71
2022/09/09 10:25:13;;;;;;;3.90;2.10;;;15.30;99.90;;;;;;5036902;28;20048;-71
2022/09/09 10:27:50;;;;;;;3.17;1.75;;;15.30;99.90;;;;;;5036766;28;20036;-71
2022/09/09 10:30:20;;;;;;;2.97;1.85;;;15.30;99.90;;;;;;5036923;28;20049;-71
2022/09/09 10:33:09;;;;;;;3.70;1.52;;;15.40;99.90;;;;;;5036725;28;20035;-71
2022/09/09 10:35:53;;;;;;;2.00;1.10;;;15.40;99.90;;;;;;5036891;28;20084;-71
2022/09/09 10:38:43;;;;;;;2.38;1.00;;;15.40;99.90;;;;;;5037140;28;20026;-71
2022/09/09 10:41:27;;;;;;;2.60;1.00;;;15.40;99.90;;;;;;5036721;28;20036;-71
2022/09/09 10:44:06;;;;;;;3.13;0.90;;;15.40;99.90;;;;;;5036519;28;20033;-71
2022/09/09 10:46:36;;;;;;;3.03;1.10;;;15.40;99.90;;;;;;5036555;28;20032;-72
2022/09/09 10:49:10;;;;;;;1.73;0.82;;;15.40;99.90;;;;;;5036408;28;20029;-72
2022/09/09 10:51:55;;;;;;;1.60;0.90;;;15.40;99.90;;;;;;5036271;28;20100;-71
2022/09/09 10:54:48;;;;;;;2.40;0.88;;;15.50;99.90;;;;;;5036241;28;20067;-71
2022/09/09 10:57:28;;;;;;;5.13;1.00;;;15.50;99.90;;;;;;5036480;28;20179;-71
2022/09/09 10:59:59;;;;;;;1.70;0.80;;;15.50;99.90;;;;;;5036382;28;20105;-71
2022/09/09 11:02:34;;;;;;;2.08;0.98;;;15.40;99.90;;;;;;5036135;28;20052;-71
2022/09/09 11:05:14;;;;;;;2.70;0.85;;;15.50;99.90;;;;;;5036418;28;20052;-71
2022/09/09 11:08:11;;;;;;;3.03;1.00;;;15.40;99.90;;;;;;5035962;28;20061;-71
2022/09/09 11:10:58;;;;;;;1.80;0.80;;;15.50;99.90;;;;;;5035461;28;20049;-71
2022/09/09 11:13:27;;;;;;;2.50;1.10;;;15.50;99.90;;;;;;5036201;28;20072;-71
2022/09/09 11:16:00;;;;;;;2.20;1.02;;;15.50;99.90;;;;;;5034597;28;20025;-71
2022/09/09 11:18:39;;;;;;;3.42;1.05;;;15.50;99.90;;;;;;5036360;28;20032;-71
2022/09/09 11:21:12;;;;;;;1.98;0.82;;;15.50;99.90;;;;;;5034450;28;20036;-71
2022/09/09 11:23:47;;;;;;;3.15;1.05;;;15.50;99.90;;;;;;5035822;28;20047;-71
2022/09/09 11:26:25;;;;;;;2.03;0.90;;;15.60;99.90;;;;;;5035879;28;20022;-71
2022/09/09 11:29:19;;;;;;;3.47;1.50;;;15.70;99.90;;;;;;5035750;28;20021;-71
2022/09/09 11:32:17;;;;;;;2.65;1.30;;;15.70;99.90;;;;;;5035521;28;20064;-71
2022/09/09 11:35:14;;;;;;;2.10;1.40;;;15.70;99.90;;;;;;5035011;28;20033;-70
2022/09/09 11:38:05;;;;;;;2.75;1.20;;;15.60;99.90;;;;;;5034469;28;20034;-71
2022/09/09 11:40:32;;;;;;;3.88;1.15;;;15.60;99.90;;;;;;5035740;28;20032;-71
2022/09/09 11:43:21;;;;;;;3.35;1.50;;;15.60;99.90;;;;;;5035348;28;20069;-71
2022/09/09 11:45:57;;;;;;;4.95;1.50;;;15.60;99.90;;;;;;5035408;28;20048;-70
2022/09/09 11:48:39;;;;;;;3.10;1.10;;;15.60;99.90;;;;;;5035445;28;20516;-70
2022/09/09 11:51:25;;;;;;;3.22;1.50;;;15.60;99.90;;;;;;5035298;28;20052;-71
2022/09/09 11:54:21;;;;;;;2.38;1.60;;;15.60;99.90;;;;;;5035146;28;20067;-70
2022/09/09 11:56:47;;;;;;;3.00;1.48;;;15.60;99.90;;;;;;5035157;28;20108;-71
2022/09/09 11:59:31;;;;;;;2.63;1.48;;;15.50;99.90;;;;;;5035585;28;20072;-71
2022/09/09 12:02:12;;;;;;;3.45;1.17;;;15.50;99.90;;;;;;5035180;28;20114;-71
2022/09/09 12:04:42;;;;;;;1.70;1.02;;;15.40;99.90;;;;;;5035205;28;20358;-71
2022/09/09 12:07:11;;;;;;;2.42;1.25;;;15.40;99.90;;;;;;5034939;28;20034;-71
2022/09/09 12:09:46;;;;;;;3.28;1.40;;;15.40;99.90;;;;;;5034719;28;20055;-71
2022/09/09 12:12:11;;;;;;;1.80;1.00;;;15.40;99.90;;;;;;5032365;28;20124;-70
2022/09/09 12:15:02;;;;;;;1.70;0.80;;;15.40;99.90;;;;;;5039454;28;20646;-69
2022/09/09 12:17:31;;;;;;;4.70;1.08;;;15.50;99.90;;;;;;5033322;28;20124;-70
2022/09/09 12:20:12;;;;;;;3.50;0.82;;;15.50;99.90;;;;;;5046709;28;20029;-71
2022/09/09 12:22:45;;;;;;;2.00;0.80;;;15.40;99.90;;;;;;5034655;28;20059;-71
2022/09/09 12:25:19;;;;;;;1.48;0.75;;;15.40;99.90;;;;;;5045783;28;20502;-70
2022/09/09 12:28:15;;;;;;;2.42;0.60;;;15.50;99.90;;;;;;5033799;28;20069;-70
2022/09/09 12:31:02;;;;;;;1.38;0.77;;;15.60;99.90;;;;;;5036237;28;20120;-70
2022/09/09 12:33:35;;;;;;;3.75;1.10;;;15.70;99.90;;;;;;5035702;28;20032;-70
2022/09/09 12:36:04;;;;;;;1.42;0.82;;;15.80;99.90;;;;;;5032016;28;20421;-70
2022/09/09 12:38:40;;;;;;;2.45;0.77;;;15.80;99.90;;;;;;5032606;28;20027;-70
2022/09/09 12:41:19;;;;;;;1.30;0.80;;;15.90;99.90;;;;;;5032086;28;20443;-70
2022/09/09 12:43:46;;;;;;;2.15;0.80;;;15.90;99.90;;;;;;5032734;28;20053;-70
2022/09/09 12:46:33;;;;;;;1.80;0.82;;;16.00;99.90;;;;;;5032719;28;20037;-70
2022/09/09 12:48:59;;;;;;;1.92;0.90;;;16.00;99.90;;;;;;5032722;28;20029;-70
2022/09/09 12:51:28;;;;;;;2.65;1.10;;;16.10;99.90;;;;;;5032622;28;20025;-70
2022/09/09 12:53:55;;;;;;;3.10;1.00;;;16.10;99.90;;;;;;5033162;28;20132;-70
2022/09/09 12:56:26;;;;;;;1.58;0.93;;;16.20;99.90;;;;;;5033839;28;20037;-70
2022/09/09 12:58:55;;;;;;;2.60;1.27;;;16.20;99.90;;;;;;5034186;28;20025;-70
2022/09/09 13:01:33;;;;;;;3.05;1.20;;;16.30;99.90;;;;;;5053041;28;20461;-70
2022/09/09 13:03:59;;;;;;;1.73;0.90;;;16.30;99.90;;;;;;5038926;28;20025;-70
2022/09/09 13:06:30;;;;;;;2.97;1.20;;;16.30;99.90;;;;;;5033991;28;20064;-70
2022/09/09 13:09:01;;;;;;;1.77;1.00;;;16.30;99.90;;;;;;5034028;28;20026;-70
2022/09/09 13:11:46;;;;;;;2.28;1.10;;;16.30;99.90;;;;;;5033549;28;20029;-70
2022/09/09 13:14:25;;;;;;;2.67;1.00;;;16.30;99.90;;;;;;5033885;28;20540;-71
2022/09/09 13:17:00;;;;;;;2.30;1.00;;;16.20;99.90;;;;;;5032573;28;20022;-70
2022/09/09 13:19:28;;;;;;;1.98;0.80;;;16.20;99.90;;;;;;5033945;28;20018;-71
2022/09/09 13:21:55;;;;;;;1.88;0.95;;;16.20;99.90;;;;;;5033557;28;20469;-71